Time;durP1;ratioP1;P1;durP2;ratioP2;P2;SDS_P1;SDS_P2;PMS_P1;PMS_P2;Temp;Humidity;BMP_temperature;BMP_pressure;BME280_temperature;BME280_humidity;BME280_pressure;Samples;Min_cycle;Max_cycle;Signal;HPM_P1;HPM_P2
2023/04/01 00:00:19;;;;;;;;;1.00;0.00;;;;;14.19;100.00;99504.81;4882520;29;27791;-82
2023/04/01 00:02:45;;;;;;;;;0.50;0.50;;;;;14.13;100.00;99508.50;4884574;29;28541;-82
2023/04/01 00:05:12;;;;;;;;;1.75;0.00;;;;;14.19;100.00;99499.47;4882426;29;28524;-81
2023/04/01 00:07:39;;;;;;;;;0.00;0.00;;;;;14.13;100.00;99497.81;4883260;29;28534;-82
2023/04/01 00:10:06;;;;;;;;;0.00;0.00;;;;;14.23;100.00;99502.97;4865841;29;29665;-82
2023/04/01 00:12:32;;;;;;;;;2.75;1.50;;;;;14.15;100.00;99514.69;4865096;29;28507;-82
2023/04/01 00:14:58;;;;;;;;;1.00;1.00;;;;;14.14;100.00;99510.28;4881325;29;28505;-82
2023/04/01 00:17:24;;;;;;;;;1.00;1.00;;;;;14.13;100.00;99521.00;4879979;29;29678;-82
2023/04/01 00:19:49;;;;;;;;;1.00;1.00;;;;;14.15;100.00;99516.50;4881338;29;29641;-82
2023/04/01 00:22:14;;;;;;;;;2.00;1.00;;;;;14.12;100.00;99528.16;4882951;29;28639;-82
2023/04/01 00:24:40;;;;;;;;;0.50;0.50;;;;;14.11;100.00;99504.97;4883321;29;28583;-81
2023/04/01 00:27:05;;;;;;;;;2.75;1.75;;;;;14.14;100.00;99507.59;4865609;29;31004;-81
2023/04/01 00:29:31;;;;;;;;;0.00;0.00;;;;;14.15;100.00;99514.69;4880432;29;29060;-82
2023/04/01 00:31:57;;;;;;;;;3.25;0.75;;;;;14.21;100.00;99519.03;4882099;29;28564;-80
2023/04/01 00:34:23;;;;;;;;;0.00;0.00;;;;;14.15;100.00;99506.66;4883169;29;28461;-81
2023/04/01 00:36:52;;;;;;;;;0.00;0.00;;;;;14.16;100.00;99512.94;4881582;29;28403;-81
2023/04/01 00:39:20;;;;;;;;;0.00;0.00;;;;;14.23;100.00;99517.22;4880893;29;27973;-82
2023/04/01 00:41:46;;;;;;;;;0.00;0.00;;;;;14.16;100.00;99510.25;4865403;29;28619;-82
2023/04/01 00:44:24;;;;;;;;;1.67;1.00;;;;;14.29;100.00;99522.44;4880104;29;27880;-82
2023/04/01 00:46:50;;;;;;;;;0.00;0.00;;;;;14.12;100.00;99513.91;4881028;29;28423;-82
2023/04/01 00:49:18;;;;;;;;;2.33;0.67;;;;;14.18;100.00;99517.31;4880296;29;28464;-82
2023/04/01 00:51:47;;;;;;;;;0.00;0.00;;;;;14.23;100.00;99519.03;4880466;29;27909;-82
2023/04/01 00:54:15;;;;;;;;;0.25;0.00;;;;;14.20;100.00;99504.81;4880868;29;28497;-82
2023/04/01 00:56:55;;;;;;;;;0.75;0.75;;;;;14.28;100.00;99503.75;4880309;29;29913;-82
2023/04/01 00:59:24;;;;;;;;;1.00;1.00;;;;;14.20;100.00;99518.16;4865552;29;29013;-82
2023/04/01 01:01:50;;;;;;;;;0.00;0.00;;;;;14.03;100.00;99509.59;4882517;29;28490;-82
2023/04/01 01:04:30;;;;;;;;;1.00;0.00;;;;;14.13;100.00;99516.53;4882696;29;28514;-82
2023/04/01 01:06:58;;;;;;;;;1.00;1.00;;;;;14.14;100.00;99512.94;4882358;29;28595;-82
2023/04/01 01:09:51;;;;;;;;;1.40;0.80;;;;;14.18;100.00;99509.31;4882743;29;28496;-81
2023/04/01 01:12:28;;;;;;;;;2.25;0.75;;;;;14.09;100.00;99520.16;4881702;29;27853;-81
2023/04/01 01:14:59;;;;;;;;;0.00;0.00;;;;;14.09;100.00;99509.47;4863903;29;27959;-82
2023/04/01 01:17:51;;;;;;;;;0.00;0.00;;;;;14.08;100.00;99510.41;4862691;29;30821;-81
2023/04/01 01:20:54;;;;;;;;;1.25;0.00;;;;;14.11;100.00;99513.00;4864618;29;29181;-82
2023/04/01 01:23:39;;;;;;;;;0.50;0.50;;;;;14.06;100.00;99508.66;4864342;29;28454;-81
2023/04/01 01:26:35;;;;;;;;;0.00;0.00;;;;;14.08;100.00;99513.06;4864471;29;27858;-81
2023/04/01 01:29:22;;;;;;;;;1.00;0.25;;;;;14.08;100.00;99513.06;4864051;29;30734;-82
2023/04/01 01:32:23;;;;;;;;;0.50;0.50;;;;;14.07;100.00;99513.09;4864538;29;29087;-81
2023/04/01 01:35:13;;;;;;;;;1.00;1.00;;;;;14.07;100.00;99511.28;4874759;29;28476;-81
2023/04/01 01:37:40;;;;;;;;;0.00;0.00;;;;;13.89;100.00;99504.50;4863245;29;27963;-81
2023/04/01 01:40:11;;;;;;;;;0.67;0.00;;;;;13.97;100.00;99520.41;4862045;29;29360;-81
2023/04/01 01:42:44;;;;;;;;;1.75;1.75;;;;;13.95;100.00;99516.88;4863020;29;28488;-81
2023/04/01 01:45:12;;;;;;;;;0.50;0.00;;;;;13.86;100.00;99528.66;4864059;29;28553;-82
2023/04/01 01:47:39;;;;;;;;;0.50;0.50;;;;;13.77;100.00;99526.13;4864030;29;28519;-82
2023/04/01 01:50:06;;;;;;;;;0.00;0.00;;;;;13.72;100.00;99515.53;4864513;29;28387;-82
2023/04/01 01:52:31;;;;;;;;;0.00;0.00;;;;;13.71;100.00;99536.94;4867517;29;28480;-82
2023/04/01 01:54:58;;;;;;;;;1.00;1.00;;;;;13.75;100.00;99527.94;4850083;29;28336;-82
2023/04/01 01:57:28;;;;;;;;;0.75;0.75;;;;;13.80;100.00;99523.41;4864650;29;27911;-82
2023/04/01 02:00:00;;;;;;;;;2.00;0.75;;;;;13.78;100.00;99520.78;4867103;29;28149;-82
2023/04/01 02:02:31;;;;;;;;;0.00;0.00;;;;;13.72;100.00;99531.56;4867005;29;27860;-82
2023/04/01 02:04:57;;;;;;;;;0.50;0.50;;;;;13.71;100.00;99535.13;4864985;29;28002;-81
2023/04/01 02:07:33;;;;;;;;;2.00;0.75;;;;;13.84;100.00;99526.91;4849538;29;28661;-82
2023/04/01 02:09:59;;;;;;;;;0.00;0.00;;;;;13.73;100.00;99527.97;4865899;29;29308;-82
2023/04/01 02:12:24;;;;;;;;;2.00;1.00;;;;;13.69;100.00;99520.91;4864303;29;29031;-82
2023/04/01 02:14:55;;;;;;;;;0.00;0.00;;;;;13.79;100.00;99532.31;4865030;29;28379;-82
2023/04/01 02:17:23;;;;;;;;;0.75;0.00;;;;;13.76;100.00;99538.63;4866005;29;28634;-82
2023/04/01 02:20:07;;;;;;;;;1.50;0.25;;;;;13.80;100.00;99518.06;4866162;29;30164;-81
2023/04/01 02:22:41;;;;;;;;;0.00;0.00;;;;;13.81;100.00;99530.50;4865402;29;28417;-81
2023/04/01 02:25:11;;;;;;;;;2.00;1.00;;;;;13.86;100.00;99546.47;4850174;29;28528;-82
2023/04/01 02:27:38;;;;;;;;;0.00;0.00;;;;;13.74;100.00;99535.09;4849891;29;28471;-82
2023/04/01 02:30:04;;;;;;;;;0.80;0.80;;;;;13.73;100.00;99533.31;4863244;29;29802;-81
2023/04/01 02:32:33;;;;;;;;;0.80;0.00;;;;;13.82;100.00;99529.63;4865721;29;28505;-81
2023/04/01 02:35:03;;;;;;;;;0.00;0.00;;;;;13.74;100.00;99536.91;4865823;29;28546;-82
2023/04/01 02:37:28;;;;;;;;;0.00;0.00;;;;;13.73;100.00;99530.66;4865930;29;27915;-82
2023/04/01 02:39:53;;;;;;;;;0.00;0.00;;;;;13.77;100.00;99532.34;4864328;29;29771;-82
2023/04/01 02:42:19;;;;;;;;;1.75;0.25;;;;;13.75;100.00;99543.97;4848842;29;28894;-82
2023/04/01 02:44:45;;;;;;;;;2.00;0.00;;;;;13.87;100.00;99542.88;4865973;29;28615;-82
2023/04/01 02:47:11;;;;;;;;;1.00;1.00;;;;;13.76;100.00;99543.97;4864828;29;27902;-82
2023/04/01 02:49:36;;;;;;;;;1.00;1.00;;;;;13.75;100.00;99542.19;4865241;29;28851;-82
2023/04/01 02:52:01;;;;;;;;;1.00;1.00;;;;;13.78;100.00;99539.47;4864290;29;29572;-82
2023/04/01 02:54:27;;;;;;;;;2.00;2.00;;;;;13.74;100.00;99534.22;4864149;29;28609;-82
2023/04/01 02:56:52;;;;;;;;;0.00;0.00;;;;;13.72;100.00;99544.94;4846396;29;28810;-82
2023/04/01 02:59:17;;;;;;;;;0.25;0.00;;;;;13.76;100.00;99564.47;4864430;29;28591;-81
2023/04/01 03:01:43;;;;;;;;;0.33;0.33;;;;;13.72;100.00;99555.63;4864290;29;28542;-82
2023/04/01 03:04:08;;;;;;;;;0.00;0.00;;;;;13.75;100.00;99565.34;4863121;29;28181;-81
2023/04/01 03:06:40;;;;;;;;;1.00;0.00;;;;;13.77;100.00;99556.41;4865406;29;28486;-82
2023/04/01 03:09:05;;;;;;;;;1.60;1.60;;;;;13.78;100.00;99563.53;4864547;29;28525;-82
2023/04/01 03:11:31;;;;;;;;;0.00;0.00;;;;;13.78;100.00;99563.53;4864182;29;28751;-82
2023/04/01 03:13:57;;;;;;;;;2.00;0.00;;;;;13.89;100.00;99562.44;4864748;29;27843;-82
2023/04/01 03:16:23;;;;;;;;;0.60;0.60;;;;;13.78;100.00;99576.00;4848006;29;28534;-82
2023/04/01 03:18:50;;;;;;;;;0.00;0.00;;;;;13.79;100.00;99565.31;4863173;29;29679;-82
2023/04/01 03:21:23;;;;;;;;;0.25;0.25;;;;;13.92;100.00;99573.09;4864005;29;29701;-82
2023/04/01 03:23:49;;;;;;;;;0.50;0.50;;;;;13.78;100.00;99565.31;4863438;29;28454;-82
2023/04/01 03:26:15;;;;;;;;;0.33;0.00;;;;;13.78;100.00;99579.56;4863208;29;28625;-82
2023/04/01 03:28:41;;;;;;;;;1.00;1.00;;;;;13.75;100.00;99582.25;4867482;29;28080;-82
2023/04/01 03:31:06;;;;;;;;;0.67;0.67;;;;;13.73;100.00;99580.53;4867054;29;29961;-82
2023/04/01 03:33:32;;;;;;;;;0.00;0.00;;;;;13.69;100.00;99578.84;4866190;29;28446;-82
2023/04/01 03:35:57;;;;;;;;;2.00;0.00;;;;;13.73;100.00;99599.25;4880955;29;28477;-82
2023/04/01 03:38:23;;;;;;;;;0.33;0.00;;;;;13.69;100.00;99582.38;4880744;29;28014;-82
2023/04/01 03:40:48;;;;;;;;;1.00;1.00;;;;;13.62;100.00;99564.69;4881560;29;28542;-81
2023/04/01 03:43:14;;;;;;;;;2.00;1.00;;;;;13.70;100.00;99591.28;4882863;29;29015;-82
2023/04/01 03:45:47;;;;;;;;;0.00;0.00;;;;;13.82;100.00;99585.75;4865766;29;28509;-82
2023/04/01 03:48:14;;;;;;;;;0.00;0.00;;;;;13.74;100.00;99590.34;4883455;29;28747;-82
2023/04/01 03:50:40;;;;;;;;;0.50;0.50;;;;;13.71;100.00;99591.25;4882225;29;28904;-81
2023/04/01 03:53:07;;;;;;;;;2.00;2.00;;;;;13.84;100.00;99593.72;4884764;29;27883;-82
2023/04/01 03:55:33;;;;;;;;;1.00;1.00;;;;;13.79;100.00;99599.13;4883364;29;28015;-82
2023/04/01 03:57:59;;;;;;;;;2.00;0.00;;;;;13.76;100.00;99601.88;4885098;29;29074;-82
2023/04/01 04:00:24;;;;;;;;;0.50;0.00;;;;;13.76;100.00;99596.53;4882214;29;27829;-82
2023/04/01 04:02:50;;;;;;;;;2.67;2.00;;;;;13.78;100.00;99595.59;4882459;29;28548;-82
2023/04/01 04:05:15;;;;;;;;;0.00;0.00;;;;;13.84;100.00;99609.78;4883919;29;28401;-82
2023/04/01 04:07:40;;;;;;;;;1.00;1.00;;;;;13.87;100.00;99609.69;4865134;29;30494;-82
2023/04/01 04:10:07;;;;;;;;;0.67;0.67;;;;;13.91;100.00;99603.38;4880285;29;28988;-82
2023/04/01 04:12:32;;;;;;;;;1.00;1.00;;;;;13.88;100.00;99611.47;4881449;29;27859;-82
2023/04/01 04:14:57;;;;;;;;;0.00;0.00;;;;;13.87;100.00;99604.34;4864323;29;28483;-82
2023/04/01 04:17:23;;;;;;;;;1.33;1.00;;;;;13.83;100.00;99608.00;4882240;29;28497;-82
2023/04/01 04:19:48;;;;;;;;;0.00;0.00;;;;;13.83;100.00;99624.03;4865108;29;28505;-82
2023/04/01 04:22:14;;;;;;;;;1.00;1.00;;;;;13.82;100.00;99620.47;4879981;29;27951;-82
2023/04/01 04:24:39;;;;;;;;;2.00;2.00;;;;;13.80;100.00;99619.63;4881883;29;28007;-82
2023/04/01 04:27:05;;;;;;;;;1.00;1.00;;;;;13.83;100.00;99621.34;4880475;29;29753;-82
2023/04/01 04:29:32;;;;;;;;;0.00;0.00;;;;;13.86;100.00;99616.84;4882999;29;28488;-82
2023/04/01 04:31:57;;;;;;;;;0.00;0.00;;;;;13.77;100.00;99625.88;4865977;29;28537;-82
2023/04/01 04:34:22;;;;;;;;;0.33;0.33;;;;;13.71;100.00;99609.94;4883175;29;28580;-82
2023/04/01 04:36:48;;;;;;;;;2.00;1.00;;;;;13.80;100.00;99620.50;4867032;29;30703;-82
2023/04/01 04:39:14;;;;;;;;;0.00;0.00;;;;;13.83;100.00;99624.91;4882178;29;28602;-82
2023/04/01 04:41:40;;;;;;;;;2.00;0.50;;;;;13.83;100.00;99619.56;4882154;29;28481;-82
2023/04/01 04:44:05;;;;;;;;;0.00;0.00;;;;;13.83;100.00;99622.22;4882158;29;28768;-82
2023/04/01 04:46:31;;;;;;;;;0.25;0.00;;;;;13.80;100.00;99622.28;4882194;29;28970;-82
2023/04/01 04:48:57;;;;;;;;;2.00;2.00;;;;;13.80;100.00;99641.88;4881790;29;28478;-82
2023/04/01 04:51:22;;;;;;;;;1.00;1.00;;;;;13.85;100.00;99622.22;4879955;29;28519;-82
2023/04/01 04:53:49;;;;;;;;;0.00;0.00;;;;;13.92;100.00;99632.78;4865725;29;28467;-82
2023/04/01 04:56:19;;;;;;;;;1.00;1.00;;;;;13.93;100.00;99630.97;4865494;29;30177;-82
2023/04/01 04:58:45;;;;;;;;;1.00;1.00;;;;;13.87;100.00;99628.41;4864722;29;28857;-82
2023/04/01 05:01:14;;;;;;;;;0.00;0.00;;;;;13.93;100.00;99626.50;4879924;29;28551;-82
2023/04/01 05:03:39;;;;;;;;;1.75;0.00;;;;;13.81;100.00;99632.06;4881826;29;27990;-82
2023/04/01 05:06:08;;;;;;;;;0.00;0.00;;;;;13.93;100.00;99637.19;4864328;29;31194;-82
2023/04/01 05:08:35;;;;;;;;;1.50;0.00;;;;;13.82;100.00;99643.66;4864923;29;28662;-82
2023/04/01 05:11:01;;;;;;;;;1.00;1.00;;;;;13.76;100.00;99634.81;4882840;29;27850;-82
2023/04/01 05:13:27;;;;;;;;;1.00;0.00;;;;;13.75;100.00;99646.41;4865613;29;27927;-82
2023/04/01 05:15:53;;;;;;;;;0.00;0.00;;;;;13.74;100.00;99644.66;4881363;29;28864;-82
2023/04/01 05:18:18;;;;;;;;;0.00;0.00;;;;;13.71;100.00;99658.03;4881245;29;28761;-82
2023/04/01 05:20:52;;;;;;;;;2.00;2.00;;;;;13.86;100.00;99659.59;4880951;29;28597;-82
2023/04/01 05:23:20;;;;;;;;;0.00;0.00;;;;;13.70;100.00;99656.28;4880954;29;28504;-82
2023/04/01 05:25:47;;;;;;;;;1.00;1.00;;;;;13.69;100.00;99648.28;4882505;29;29960;-82
2023/04/01 05:28:13;;;;;;;;;0.25;0.25;;;;;13.78;100.00;99666.88;4883191;29;28911;-83
2023/04/01 05:30:42;;;;;;;;;1.25;0.00;;;;;13.83;100.00;99659.63;4887420;29;28502;-82
2023/04/01 05:33:09;;;;;;;;;3.00;1.00;;;;;13.70;100.00;99655.41;4887011;29;28499;-81
2023/04/01 05:35:35;;;;;;;;;0.50;0.00;;;;;13.72;100.00;99673.19;4884127;29;29801;-82
2023/04/01 05:38:01;;;;;;;;;1.67;0.67;;;;;13.72;100.00;99665.16;4868244;29;28558;-82
2023/04/01 05:40:28;;;;;;;;;0.67;0.67;;;;;13.77;100.00;99671.31;4868187;29;28920;-82
2023/04/01 05:42:55;;;;;;;;;0.75;0.75;;;;;13.65;100.00;99665.28;4883008;29;28024;-82
2023/04/01 05:45:21;;;;;;;;;1.00;1.00;;;;;13.70;100.00;99666.97;4883344;29;28550;-82
2023/04/01 05:47:46;;;;;;;;;1.00;1.00;;;;;13.72;100.00;99685.66;4883677;29;28461;-82
2023/04/01 05:50:12;;;;;;;;;0.00;0.00;;;;;13.69;100.00;99675.88;4883718;29;28513;-82
2023/04/01 05:52:38;;;;;;;;;1.00;1.00;;;;;13.74;100.00;99681.19;4884655;29;27962;-82
2023/04/01 05:55:04;;;;;;;;;0.00;0.00;;;;;13.73;100.00;99692.75;4884133;29;29201;-82
2023/04/01 05:57:30;;;;;;;;;1.25;0.00;;;;;13.75;100.00;99683.81;4885237;29;28570;-81
2023/04/01 05:59:55;;;;;;;;;0.00;0.00;;;;;13.78;100.00;99686.44;4884311;29;27815;-82
2023/04/01 06:02:21;;;;;;;;;0.67;0.67;;;;;13.77;100.00;99673.97;4867369;29;28498;-82
2023/04/01 06:04:46;;;;;;;;;0.00;0.00;;;;;13.82;100.00;99689.97;4884034;29;28811;-82
2023/04/01 06:07:17;;;;;;;;;1.00;1.00;;;;;13.87;100.00;99695.22;4867077;29;28568;-82
2023/04/01 06:09:43;;;;;;;;;0.50;0.50;;;;;13.83;100.00;99698.84;4884610;29;28500;-82
2023/04/01 06:12:29;;;;;;;;;0.00;0.00;;;;;13.79;100.00;99700.69;4885245;29;28441;-82
2023/04/01 06:15:20;;;;;;;;;0.00;0.00;;;;;13.93;100.00;99697.78;4883611;29;30947;-82
2023/04/01 06:17:45;;;;;;;;;2.00;0.00;;;;;13.83;100.00;99714.88;4866301;29;28786;-83
2023/04/01 06:20:23;;;;;;;;;1.00;1.00;;;;;13.95;100.00;99714.69;4885335;29;28319;-83
2023/04/01 06:22:51;;;;;;;;;0.00;0.00;;;;;13.97;100.00;99723.56;4885642;29;28488;-82
2023/04/01 06:25:43;;;;;;;;;0.75;0.75;;;;;13.98;100.00;99720.88;4868654;29;29893;-82
2023/04/01 06:28:40;;;;;;;;;1.00;0.00;;;;;14.04;100.00;99714.56;4868305;29;27856;-83
2023/04/01 06:31:14;;;;;;;;;0.00;0.00;;;;;14.06;100.00;99718.09;4885776;29;27888;-82
2023/04/01 06:34:19;;;;;;;;;1.00;1.00;;;;;14.09;100.00;99722.50;4885903;29;28491;-82
2023/04/01 06:37:05;;;;;;;;;0.00;0.00;;;;;14.12;100.00;99734.03;4806805;29;28632;-82
2023/04/01 06:40:21;;;;;;;;;0.00;0.00;;;;;14.12;100.00;99736.69;4792419;29;28713;-82
2023/04/01 06:43:05;;;;;;;;;0.00;0.00;;;;;14.11;100.00;99734.91;4771322;29;28425;-81
2023/04/01 06:45:45;;;;;;;;;2.00;0.75;;;;;14.16;100.00;99738.41;4771480;29;28492;-82
2023/04/01 06:48:18;;;;;;;;;2.00;0.00;;;;;14.07;100.00;99741.22;4772357;29;29998;-82
2023/04/01 06:50:52;;;;;;;;;0.00;0.00;;;;;14.26;100.00;99748.94;4772958;29;28601;-82
2023/04/01 06:53:22;;;;;;;;;0.00;0.00;;;;;14.19;100.00;99733.00;4772854;29;27911;-82
2023/04/01 06:55:55;;;;;;;;;1.75;1.50;;;;;14.27;100.00;99732.00;4773114;29;28510;-82
2023/04/01 06:58:25;;;;;;;;;1.00;1.00;;;;;14.34;100.00;99750.59;4778527;29;28413;-82
2023/04/01 07:00:56;;;;;;;;;0.00;0.00;;;;;14.37;100.00;99739.81;4774157;29;29195;-82
2023/04/01 07:03:30;;;;;;;;;2.00;1.00;;;;;14.48;100.00;99744.09;4773172;29;28460;-82
2023/04/01 07:06:02;;;;;;;;;0.75;0.75;;;;;14.43;100.00;99735.28;4788380;29;28987;-82
2023/04/01 07:08:29;;;;;;;;;0.50;0.50;;;;;14.51;100.00;99746.72;4788165;29;28268;-82
2023/04/01 07:11:00;;;;;;;;;0.00;0.00;;;;;14.54;100.00;99744.88;4788944;29;28404;-82
2023/04/01 07:13:39;;;;;;;;;0.00;0.00;;;;;14.50;100.00;99756.56;4799940;29;27885;-82
2023/04/01 07:16:15;;;;;;;;;1.40;0.00;;;;;14.44;100.00;99756.66;4824940;29;28455;-82
2023/04/01 07:18:58;;;;;;;;;0.00;0.00;;;;;14.49;100.00;99757.44;4850800;29;30046;-82
2023/04/01 07:21:35;;;;;;;;;0.00;0.00;;;;;14.48;100.00;99755.69;4883073;29;28596;-82
2023/04/01 07:24:06;;;;;;;;;1.00;1.00;;;;;14.43;100.00;99757.56;4865714;29;28489;-82
2023/04/01 07:26:32;;;;;;;;;0.25;0.00;;;;;14.41;100.00;99754.03;4883080;29;28510;-82
2023/04/01 07:28:57;;;;;;;;;1.00;1.00;;;;;14.43;100.00;99749.53;4865064;29;29756;-82
2023/04/01 07:31:30;;;;;;;;;0.67;0.67;;;;;14.71;100.00;99754.44;4883690;29;28503;-82
2023/04/01 07:34:24;;;;;;;;;1.00;0.00;;;;;14.88;100.00;99760.31;4883980;29;28472;-82
2023/04/01 07:37:14;;;;;;;;;0.75;0.75;;;;;15.02;100.00;99769.91;4883629;29;27951;-82
2023/04/01 07:39:57;;;;;;;;;2.25;0.00;;;;;14.92;100.00;99770.06;4870240;29;29977;-82
2023/04/01 07:42:54;;;;;;;;;0.25;0.25;;;;;15.13;100.00;99766.09;4868269;29;28528;-82
2023/04/01 07:45:41;;;;;;;;;0.75;0.75;;;;;15.26;100.00;99756.00;4792479;29;28405;-82
2023/04/01 07:48:32;;;;;;;;;0.00;0.00;;;;;15.36;100.00;99762.06;4806739;29;28628;-82
2023/04/01 07:51:16;;;;;;;;;0.75;0.00;;;;;15.48;100.00;99768.94;4807462;29;30275;-82
2023/04/01 07:53:54;;;;;;;;;0.00;0.00;;;;;15.59;100.00;99769.56;4792733;29;29583;-82
2023/04/01 07:56:41;;;;;;;;;0.00;0.00;;;;;15.64;100.00;99775.72;4808418;29;28995;-83
2023/04/01 07:59:41;;;;;;;;;1.00;0.00;;;;;15.68;100.00;99774.75;4806990;29;28548;-81
2023/04/01 08:02:26;;;;;;;;;1.25;0.00;;;;;15.71;100.00;99782.69;4806756;29;31503;-82
2023/04/01 08:05:25;;;;;;;;;0.50;0.25;;;;;15.82;100.00;99773.59;4806890;29;29103;-82
2023/04/01 08:08:09;;;;;;;;;1.00;0.75;;;;;16.00;99.49;99783.91;4806259;29;28459;-82
2023/04/01 08:10:45;;;;;;;;;0.00;0.00;;;;;15.82;99.89;99777.16;4806042;29;28443;-82
2023/04/01 08:13:51;;;;;;;;;0.00;0.00;;;;;15.99;99.15;99783.00;4806317;29;28183;-82
2023/04/01 08:16:44;;;;;;;;;0.50;0.50;;;;;15.92;98.43;99791.25;4805366;29;28517;-82
2023/04/01 08:19:25;;;;;;;;;0.00;0.00;;;;;16.01;97.96;99793.69;4806141;29;28479;-82
2023/04/01 08:21:54;;;;;;;;;0.00;0.00;;;;;15.95;97.57;99801.88;4836405;29;27983;-82
2023/04/01 08:24:41;;;;;;;;;1.67;0.67;;;;;16.09;96.75;99798.88;4883509;29;28446;-82
2023/04/01 08:27:33;;;;;;;;;0.00;0.00;;;;;16.04;96.91;99795.41;4882769;29;28454;-82
2023/04/01 08:30:20;;;;;;;;;0.50;0.50;;;;;15.94;93.24;99801.00;4808930;29;28584;-82
2023/04/01 08:32:53;;;;;;;;;0.00;0.00;;;;;15.94;94.92;99810.84;4812069;29;27950;-82
2023/04/01 08:35:39;;;;;;;;;1.00;0.60;;;;;15.95;93.20;99799.19;4811753;29;29935;-82
2023/04/01 08:38:21;;;;;;;;;0.00;0.00;;;;;15.96;95.30;99798.28;4825809;29;28864;-82
2023/04/01 08:40:50;;;;;;;;;0.00;0.00;;;;;15.96;95.21;99791.13;4827419;29;28513;-82
2023/04/01 08:43:25;;;;;;;;;0.00;0.00;;;;;16.20;94.43;99807.56;4811827;29;28776;-82
2023/04/01 08:46:18;;;;;;;;;0.50;0.25;;;;;16.20;92.55;99803.06;4810463;29;29836;-82
2023/04/01 08:48:58;;;;;;;;;0.50;0.00;;;;;16.28;91.51;99812.72;4809231;29;28618;-82
2023/04/01 08:51:45;;;;;;;;;0.00;0.00;;;;;16.24;91.81;99813.72;4809663;29;27866;-82
2023/04/01 08:54:58;;;;;;;;;0.00;0.00;;;;;16.22;92.07;99815.56;4809868;29;27974;-82
2023/04/01 08:57:48;;;;;;;;;0.60;0.00;;;;;16.27;91.13;99822.56;4810685;29;31160;-82
2023/04/01 09:00:31;;;;;;;;;0.00;0.00;;;;;16.33;91.99;99819.75;4824674;29;28011;-82
2023/04/01 09:03:30;;;;;;;;;0.20;0.00;;;;;16.42;91.08;99812.38;4809902;29;28613;-82
2023/04/01 09:06:31;;;;;;;;;0.00;0.00;;;;;16.42;91.80;99796.28;4833455;29;28428;-82
2023/04/01 09:09:05;;;;;;;;;0.00;0.00;;;;;16.42;92.00;99801.66;4883866;29;28250;-81
2023/04/01 09:12:12;;;;;;;;;0.00;0.00;;;;;16.68;89.90;99793.81;4865616;29;30004;-82
2023/04/01 09:14:43;;;;;;;;;2.40;0.60;;;;;16.79;91.30;99796.22;4865586;29;28588;-83
2023/04/01 09:17:36;;;;;;;;;0.40;0.40;;;;;16.99;90.57;99798.41;4881762;29;28528;-83
2023/04/01 09:20:29;;;;;;;;;2.00;0.00;;;;;17.18;87.96;99805.00;4846637;29;30004;-83
2023/04/01 09:23:10;;;;;;;;;1.50;0.25;;;;;17.15;88.65;99815.00;4863174;29;28514;-83
2023/04/01 09:25:50;;;;;;;;;1.50;0.00;;;;;17.13;87.73;99806.09;4860285;29;28488;-83
2023/04/01 09:28:34;;;;;;;;;1.00;1.00;;;;;17.12;87.03;99807.88;4844688;29;28116;-82
2023/04/01 09:31:09;;;;;;;;;0.25;0.25;;;;;17.05;86.54;99805.41;4814175;29;30237;-83
2023/04/01 09:34:08;;;;;;;;;0.00;0.00;;;;;17.12;87.54;99807.00;4863219;29;28468;-83
2023/04/01 09:36:47;;;;;;;;;3.40;0.00;;;;;16.99;87.66;99815.41;4847212;29;28557;-83
2023/04/01 09:39:26;;;;;;;;;1.00;1.00;;;;;17.18;83.37;99809.53;4864262;29;28537;-83
2023/04/01 09:42:38;;;;;;;;;0.00;0.00;;;;;17.35;82.90;99823.38;4862896;29;28453;-83
2023/04/01 09:45:37;;;;;;;;;1.00;1.00;;;;;17.25;82.16;99821.88;4853311;29;28793;-83
2023/04/01 09:48:11;;;;;;;;;3.50;2.00;;;;;17.07;84.71;99817.88;4850223;29;28441;-82
2023/04/01 09:51:14;;;;;;;;;1.25;1.00;;;;;17.20;83.04;99824.66;4843700;29;28511;-82
2023/04/01 09:54:02;;;;;;;;;1.00;1.00;;;;;17.21;81.70;99830.94;4827082;29;29813;-82
2023/04/01 09:56:58;;;;;;;;;1.00;0.00;;;;;17.16;79.38;99836.41;4828927;29;28833;-82
2023/04/01 10:00:02;;;;;;;;;0.00;0.00;;;;;17.20;81.12;99835.41;4846517;29;28540;-82
2023/04/01 10:02:34;;;;;;;;;0.00;0.00;;;;;17.25;79.33;99838.00;4829400;29;28657;-82
2023/04/01 10:05:17;;;;;;;;;0.00;0.00;;;;;17.03;74.70;99843.06;4826849;29;30843;-83
2023/04/01 10:08:17;;;;;;;;;0.00;0.00;;;;;17.03;72.96;99813.53;4826860;29;29638;-82
2023/04/01 10:11:10;;;;;;;;;0.25;0.25;;;;;17.08;71.38;99834.88;4826709;29;28572;-82
2023/04/01 10:13:54;;;;;;;;;0.50;0.50;;;;;17.26;72.88;99838.88;4846068;29;28741;-82
2023/04/01 10:16:31;;;;;;;;;0.00;0.00;;;;;17.40;69.30;99842.91;4829292;29;29808;-82
2023/04/01 10:19:43;;;;;;;;;2.00;0.00;;;;;17.46;69.44;99820.38;4843431;29;28598;-82
2023/04/01 10:22:11;;;;;;;;;2.00;0.60;;;;;17.25;70.79;99843.38;4865223;29;28539;-82
2023/04/01 10:24:48;;;;;;;;;1.00;0.60;;;;;17.38;71.04;99838.53;4867296;29;28422;-82
2023/04/01 10:27:38;;;;;;;;;0.00;0.00;;;;;17.49;70.41;99841.78;4848564;29;29964;-82
2023/04/01 10:30:03;;;;;;;;;0.00;0.00;;;;;17.21;66.65;99839.00;4848703;29;28927;-82
2023/04/01 10:32:59;;;;;;;;;0.00;0.00;;;;;17.31;69.34;99836.91;4849978;29;27877;-82
2023/04/01 10:35:46;;;;;;;;;0.80;0.80;;;;;17.33;70.52;99843.13;4866747;29;28546;-82
2023/04/01 10:38:42;;;;;;;;;0.60;0.60;;;;;17.39;70.27;99833.09;4866239;29;29142;-82
2023/04/01 10:41:14;;;;;;;;;1.00;0.80;;;;;17.43;71.50;99835.69;4865540;29;28450;-82
2023/04/01 10:44:00;;;;;;;;;0.40;0.40;;;;;17.67;68.34;99828.72;4850061;29;28457;-82
2023/04/01 10:47:02;;;;;;;;;0.00;0.00;;;;;17.80;65.93;99831.00;4865843;29;28448;-82
2023/04/01 10:49:56;;;;;;;;;1.40;1.40;;;;;17.92;61.13;99826.22;4848131;29;30991;-82
2023/04/01 10:52:58;;;;;;;;;0.40;0.40;;;;;17.93;63.05;99818.09;4848714;29;29505;-82
2023/04/01 10:56:12;;;;;;;;;1.40;1.40;;;;;18.16;63.14;99812.00;4848079;29;27853;-82
2023/04/01 10:59:14;;;;;;;;;0.20;0.00;;;;;18.39;59.85;99813.94;4842416;29;28578;-82
2023/04/01 11:01:55;;;;;;;;;0.00;0.00;;;;;18.36;60.55;99813.13;4848183;29;30133;-81
2023/04/01 11:04:54;;;;;;;;;0.00;0.00;;;;;18.67;61.96;99812.13;4847565;29;28833;-81
2023/04/01 11:07:58;;;;;;;;;1.00;0.00;;;;;18.97;61.02;99821.88;4865507;29;28348;-81
2023/04/01 11:10:46;;;;;;;;;0.00;0.00;;;;;18.91;57.90;99813.13;4848715;29;28485;-82
2023/04/01 11:13:21;;;;;;;;;0.80;0.60;;;;;18.77;55.15;99808.19;4847684;29;29965;-82
2023/04/01 11:15:55;;;;;;;;;0.00;0.00;;;;;18.63;56.40;99810.47;4847249;29;28746;-82
2023/04/01 11:18:32;;;;;;;;;0.00;0.00;;;;;18.50;57.61;99810.91;4865130;29;28514;-82
2023/04/01 11:21:34;;;;;;;;;0.00;0.00;;;;;18.46;58.66;99800.25;4848794;29;28634;-81
2023/04/01 11:24:21;;;;;;;;;0.00;0.00;;;;;18.54;55.55;99808.97;4863560;29;29109;-81
2023/04/01 11:26:52;;;;;;;;;0.20;0.00;;;;;18.49;55.92;99819.91;4848704;29;28677;-82
2023/04/01 11:29:24;;;;;;;;;0.00;0.00;;;;;18.39;56.48;99823.81;4866840;29;28474;-81
2023/04/01 11:32:19;;;;;;;;;0.00;0.00;;;;;18.34;57.51;99809.63;4849428;29;27951;-82
2023/04/01 11:34:57;;;;;;;;;0.00;0.00;;;;;18.34;56.61;99820.38;4880345;29;28565;-82
2023/04/01 11:37:44;;;;;;;;;0.40;0.00;;;;;18.22;54.39;99832.47;4869030;29;28853;-82
2023/04/01 11:40:25;;;;;;;;;0.50;0.00;;;;;17.98;55.08;99809.88;4866044;29;28461;-82
2023/04/01 11:43:08;;;;;;;;;1.00;0.00;;;;;18.03;57.56;99826.75;4883199;29;28564;-82
2023/04/01 11:45:46;;;;;;;;;0.00;0.00;;;;;18.07;58.39;99808.72;4884337;29;29258;-84
2023/04/01 11:48:30;;;;;;;;;0.00;0.00;;;;;18.37;59.35;99823.00;4882858;29;28541;-82
2023/04/01 11:51:44;;;;;;;;;1.00;1.00;;;;;18.27;56.73;99821.53;4865869;29;28564;-82
2023/04/01 11:54:55;;;;;;;;;3.00;0.75;;;;;18.24;58.54;99829.69;4865277;29;27973;-82
2023/04/01 11:57:41;;;;;;;;;1.00;1.00;;;;;18.39;59.36;99834.59;4773308;29;29748;-82
2023/04/01 12:00:16;;;;;;;;;1.50;1.00;;;;;18.57;60.57;99825.91;4773373;29;28705;-82
2023/04/01 12:03:06;;;;;;;;;2.00;1.00;;;;;18.71;60.37;99829.94;4775157;29;28499;-83
2023/04/01 12:05:52;;;;;;;;;0.00;0.00;;;;;18.64;57.51;99828.38;4790055;29;28685;-80
2023/04/01 12:08:36;;;;;;;;;0.50;0.00;;;;;18.56;55.81;99816.06;4772598;29;29953;-81